Palmer Municipal Airport
PAAQ : now visible

Airfield :











YOU CAN JOIN US ON...

 
LOGIN :

Register | Disclaimer

   EN    FR    IT 

 









Legend :    VFR   Marginal VFR   IFR   Intensive IFR   Very Intensive IFR
Visi :
Ceiling :
>= 8 km
>= 3000ft
5 to 8 km
1000 to 3000 ft
1500m to 5 km
500 to 1000 ft
800 to 1500m
200 to 500 ft
< 800m
< 200 ft
Symbols :   Thunderstorms  Fog  Heavy snow  Heavy precipitations  Wind > 20 kt






- Airport Elevation : 242 ft
- IATA code : PAQ


PAAQ - Palmer Municipal

CURRENT METAR :
  • 280653Z AUTO 15007KT 10SM CLR 13/03 A3014 RMK AO2 SLP209 T01280028 TSNO

EXPIRED METARs :
  • 280553Z AUTO 21003KT 10SM CLR 16/02 A3014 RMK AO2 SLP208 T01610022 10189 20161 56005 TSNO
  • 280453Z AUTO 23008KT 10SM CLR 17/03 A3014 RMK AO2 SLP209 T01720028 TSNO

TAF PAAQ
Valid from the 28 at 06:00 until the 29 at 06:00 UTC


280521Z 2806/2906 VRB05KT P6SM SKC
PAZA FIR / North America



MET'MAP, your aeronautical weather chart ! - Copyright ORBIFLY December 2007 - Disclaimer

ORBIFLY MET'MAP TEAM :

Programming & Development : Alexandra Zaïnal
Concept & original design : Baudouin d'Aumeries
Assistance for programming : Marc-Olivier Méhu
Technical & hardware support : Manuel Goepfert

Contact : metmap@orbifly.com




SOURCES & CREDITS :

   NOAA       Earth
Advisory